Time;durP1;ratioP1;P1;durP2;ratioP2;P2;SDS_P1;SDS_P2;PMS_P1;PMS_P2;Temp;Humidity;BMP_temperature;BMP_pressure;BME280_temperature;BME280_humidity;BME280_pressure;Samples;Min_cycle;Max_cycle;Signal;HPM_P1;HPM_P2
2021/06/20 00:00:59;;;;;;;;;;;;;;;;;;2143906;66;1914;-63
2021/06/20 00:03:24;;;;;;;;;;;;;;;;;;2144246;66;1155;-63
2021/06/20 00:05:51;;;;;;;;;;;;;;;;;;2140609;66;1258;-64
2021/06/20 00:08:16;;;;;;;;;;;;;;;;;;2144292;66;1709;-63
2021/06/20 00:10:41;;;;;;;;;;;;;;;;;;2144029;66;1313;-64
2021/06/20 00:13:07;;;;;;;;;;;;;;;;;;2144141;66;1245;-64
2021/06/20 00:15:33;;;;;;;;;;;;;;;;;;2144360;59;1190;-63
2021/06/20 00:17:58;;;;;;;;;;;;;;;;;;2144388;66;1187;-62
2021/06/20 00:20:26;;;;;;;;;;;;;;;;;;2144287;59;1264;-64
2021/06/20 00:22:51;;;;;;;;;;;;;;;;;;2143700;66;1924;-63
2021/06/20 00:25:17;;;;;;;;;;;;;;;;;;2143581;59;1231;-63
2021/06/20 00:27:43;;;;;;;;;;;;;;;;;;2144115;66;1155;-63
2021/06/20 00:30:09;;;;;;;;;;;;;;;;;;2142858;59;1326;-64
2021/06/20 00:32:35;;;;;;;;;;;;;;;;;;2144112;66;1155;-64
2021/06/20 00:35:00;;;;;;;;;;;;;;;;;;2143931;66;1084;-64
2021/06/20 00:37:25;;;;;;;;;;;;;;;;;;2143853;66;1174;-64
2021/06/20 00:39:50;;;;;;;;;;;;;;;;;;2144088;66;1139;-64
2021/06/20 00:42:15;;;;;;;;;;;;;;;;;;2143972;66;1921;-63
2021/06/20 00:44:44;;;;;;;;;;;;;;;;;;2144350;66;1203;-62
2021/06/20 00:47:10;;;;;;;;;;;;;;;;;;2143787;66;1207;-64
2021/06/20 00:49:35;;;;;;;;;;;;;;;;;;2143482;66;1356;-64
2021/06/20 00:52:00;;;;;;;;;;;;;;;;;;2143715;66;1277;-64
2021/06/20 00:54:25;;;;;;;;;;;;;;;;;;2144134;66;1149;-64
2021/06/20 00:56:50;;;;;;;;;;;;;;;;;;2144325;59;1076;-64
2021/06/20 00:59:16;;;;;;;;;;;;;;;;;;2143815;66;1160;-64
2021/06/20 01:01:41;;;;;;;;;;;;;;;;;;2143423;66;1918;-64
2021/06/20 01:04:06;;;;;;;;;;;;;;;;;;2143923;59;1218;-64
2021/06/20 01:06:32;;;;;;;;;;;;;;;;;;2143742;66;1136;-64
2021/06/20 01:08:57;;;;;;;;;;;;;;;;;;2143225;66;1662;-64
2021/06/20 01:11:22;;;;;;;;;;;;;;;;;;2143660;66;1755;-63
2021/06/20 01:13:47;;;;;;;;;;;;;;;;;;2144072;66;1163;-64
2021/06/20 01:16:13;;;;;;;;;;;;;;;;;;2143073;59;1258;-64
2021/06/20 01:18:38;;;;;;;;;;;;;;;;;;2143971;66;1218;-63
2021/06/20 01:21:05;;;;;;;;;;;;;;;;;;2143840;59;1975;-63
2021/06/20 01:23:30;;;;;;;;;;;;;;;;;;2142732;66;1689;-64
2021/06/20 01:25:55;;;;;;;;;;;;;;;;;;2142950;59;1236;-63
2021/06/20 01:28:26;;;;;;;;;;;;;;;;;;2143453;66;1175;-64
2021/06/20 01:30:57;;;;;;;;;;;;;;;;;;2143700;66;1265;-64
2021/06/20 01:33:22;;;;;;;;;;;;;;;;;;2143386;66;1187;-64
2021/06/20 01:35:48;;;;;;;;;;;;;;;;;;2144156;66;1142;-64
2021/06/20 01:38:13;;;;;;;;;;;;;;;;;;2144021;66;1151;-64
2021/06/20 01:40:38;;;;;;;;;;;;;;;;;;2143655;66;1208;-64
2021/06/20 01:43:04;;;;;;;;;;;;;;;;;;2143947;66;1981;-64
2021/06/20 01:45:30;;;;;;;;;;;;;;;;;;2143436;66;1146;-64
2021/06/20 01:47:57;;;;;;;;;;;;;;;;;;2143880;59;1322;-64
2021/06/20 01:50:23;;;;;;;;;;;;;;;;;;2143842;66;1322;-64
2021/06/20 01:52:58;;;;;;;;;;;;;;;;;;2143915;66;1087;-64
2021/06/20 01:55:23;;;;;;;;;;;;;;;;;;2143888;66;1140;-64
2021/06/20 01:57:48;;;;;;;;;;;;;;;;;;2143754;66;1165;-64
2021/06/20 02:00:16;;;;;;;;;;;;;;;;;;2143756;66;1218;-64
2021/06/20 02:02:42;;;;;;;;;;;;;;;;;;2143214;66;1931;-64
2021/06/20 02:05:08;;;;;;;;;;;;;;;;;;2143839;66;1049;-64
2021/06/20 02:07:35;;;;;;;;;;;;;;;;;;2143424;66;1218;-64
2021/06/20 02:10:01;;;;;;;;;;;;;;;;;;2143566;66;1422;-64
2021/06/20 02:12:26;;;;;;;;;;;;;;;;;;2143739;66;1176;-64
2021/06/20 02:14:52;;;;;;;;;;;;;;;;;;2144032;59;1258;-64
2021/06/20 02:17:22;;;;;;;;;;;;;;;;;;2143104;66;1241;-64
2021/06/20 02:19:48;;;;;;;;;;;;;;;;;;2143545;66;1188;-64
2021/06/20 02:22:13;;;;;;;;;;;;;;;;;;2143402;59;1931;-64
2021/06/20 02:24:38;;;;;;;;;;;;;;;;;;2142486;59;1259;-63
2021/06/20 02:27:05;;;;;;;;;;;;;;;;;;2143796;66;1146;-64
2021/06/20 02:29:30;;;;;;;;;;;;;;;;;;2143811;59;1335;-64
2021/06/20 02:31:55;;;;;;;;;;;;;;;;;;2143581;66;1171;-63
2021/06/20 02:34:21;;;;;;;;;;;;;;;;;;2143719;66;1132;-64
2021/06/20 02:36:47;;;;;;;;;;;;;;;;;;2143716;66;1143;-64
2021/06/20 02:39:12;;;;;;;;;;;;;;;;;;2143859;66;1171;-64
2021/06/20 02:41:37;;;;;;;;;;;;;;;;;;2143552;67;1981;-64
2021/06/20 02:44:02;;;;;;;;;;;;;;;;;;2143559;67;1175;-64
2021/06/20 02:46:27;;;;;;;;;;;;;;;;;;2143636;67;1064;-64
2021/06/20 02:48:53;;;;;;;;;;;;;;;;;;2142363;67;1532;-64
2021/06/20 02:51:18;;;;;;;;;;;;;;;;;;2143759;67;1476;-64
2021/06/20 02:53:43;;;;;;;;;;;;;;;;;;2143780;67;1081;-64
2021/06/20 02:56:08;;;;;;;;;;;;;;;;;;2143514;67;1140;-64
2021/06/20 02:58:33;;;;;;;;;;;;;;;;;;2143605;67;1167;-63
2021/06/20 03:00:58;;;;;;;;;;;;;;;;;;2143387;67;1930;-64
2021/06/20 03:03:24;;;;;;;;;;;;;;;;;;2143777;67;1157;-64
2021/06/20 03:05:49;;;;;;;;;;;;;;;;;;2143898;67;1153;-66
2021/06/20 03:08:14;;;;;;;;;;;;;;;;;;2141170;59;1932;-66
2021/06/20 03:10:39;;;;;;;;;;;;;;;;;;2143197;66;1451;-66
2021/06/20 03:13:08;;;;;;;;;;;;;;;;;;2143948;66;1240;-68
2021/06/20 03:15:33;;;;;;;;;;;;;;;;;;2144308;58;1408;-67
2021/06/20 03:17:58;;;;;;;;;;;;;;;;;;2144440;66;1230;-68
2021/06/20 03:20:24;;;;;;;;;;;;;;;;;;2144105;58;1159;-68
2021/06/20 03:22:49;;;;;;;;;;;;;;;;;;2143809;66;1929;-68
2021/06/20 03:25:14;;;;;;;;;;;;;;;;;;2144100;59;1315;-68
2021/06/20 03:27:40;;;;;;;;;;;;;;;;;;2144226;66;1159;-68
2021/06/20 03:30:05;;;;;;;;;;;;;;;;;;2144260;66;1271;-69
2021/06/20 03:32:31;;;;;;;;;;;;;;;;;;2143745;66;1507;-65
2021/06/20 03:34:56;;;;;;;;;;;;;;;;;;2144283;66;1161;-65
2021/06/20 03:37:21;;;;;;;;;;;;;;;;;;2144074;66;1178;-66
2021/06/20 03:39:46;;;;;;;;;;;;;;;;;;2144448;66;1087;-66
2021/06/20 03:42:11;;;;;;;;;;;;;;;;;;2144118;66;1923;-66
2021/06/20 03:44:37;;;;;;;;;;;;;;;;;;2143985;66;1180;-66
2021/06/20 03:47:02;;;;;;;;;;;;;;;;;;2144209;59;1285;-67
2021/06/20 03:49:27;;;;;;;;;;;;;;;;;;2143903;66;1251;-65
2021/06/20 03:51:53;;;;;;;;;;;;;;;;;;2144024;66;1144;-67
2021/06/20 03:54:18;;;;;;;;;;;;;;;;;;2144165;66;1178;-65
2021/06/20 03:56:43;;;;;;;;;;;;;;;;;;2144116;66;1230;-66
2021/06/20 03:59:09;;;;;;;;;;;;;;;;;;2140412;66;1440;-65
2021/06/20 04:01:34;;;;;;;;;;;;;;;;;;2143685;66;1927;-66
2021/06/20 04:04:00;;;;;;;;;;;;;;;;;;2144310;66;1191;-66
2021/06/20 04:06:25;;;;;;;;;;;;;;;;;;2144079;66;1165;-66
2021/06/20 04:08:50;;;;;;;;;;;;;;;;;;2143893;66;1256;-67
2021/06/20 04:11:15;;;;;;;;;;;;;;;;;;2143955;66;1423;-66
2021/06/20 04:13:40;;;;;;;;;;;;;;;;;;2143945;66;1247;-65
2021/06/20 04:16:06;;;;;;;;;;;;;;;;;;2144443;59;1242;-66
2021/06/20 04:18:31;;;;;;;;;;;;;;;;;;2143935;66;1151;-66
2021/06/20 04:20:56;;;;;;;;;;;;;;;;;;2143764;66;1148;-66
2021/06/20 04:23:21;;;;;;;;;;;;;;;;;;2143452;66;1939;-67
2021/06/20 04:25:47;;;;;;;;;;;;;;;;;;2143798;59;1184;-67
2021/06/20 04:28:13;;;;;;;;;;;;;;;;;;2144179;66;1232;-66
2021/06/20 04:30:38;;;;;;;;;;;;;;;;;;2143144;59;1588;-67
2021/06/20 04:33:04;;;;;;;;;;;;;;;;;;2144112;66;1556;-66
2021/06/20 04:35:29;;;;;;;;;;;;;;;;;;2143748;66;1191;-65
2021/06/20 04:37:54;;;;;;;;;;;;;;;;;;2144024;66;1265;-66
2021/06/20 04:40:21;;;;;;;;;;;;;;;;;;2144101;66;1267;-67
2021/06/20 04:42:55;;;;;;;;;;;;;;;;;;2143554;66;1933;-66
2021/06/20 04:45:21;;;;;;;;;;;;;;;;;;2142689;66;1123;-66
2021/06/20 04:47:46;;;;;;;;;;;;;;;;;;2143739;66;1246;-66
2021/06/20 04:50:11;;;;;;;;;;;;;;;;;;2143808;66;1334;-66
2021/06/20 04:52:39;;;;;;;;;;;;;;;;;;2143790;66;1131;-67
2021/06/20 04:55:04;;;;;;;;;;;;;;;;;;2144042;66;1224;-67
2021/06/20 04:57:29;;;;;;;;;;;;;;;;;;2144151;66;1056;-66
2021/06/20 04:59:56;;;;;;;;;;;;;;;;;;2143807;66;1096;-66
2021/06/20 05:02:22;;;;;;;;;;;;;;;;;;2143877;66;1940;-66
2021/06/20 05:04:47;;;;;;;;;;;;;;;;;;2143937;66;1156;-67
2021/06/20 05:07:13;;;;;;;;;;;;;;;;;;2143939;59;1350;-66
2021/06/20 05:09:39;;;;;;;;;;;;;;;;;;2144142;66;1242;-66
2021/06/20 05:12:06;;;;;;;;;;;;;;;;;;2143795;66;1193;-66
2021/06/20 05:14:31;;;;;;;;;;;;;;;;;;2143131;66;962;-67
2021/06/20 05:16:57;;;;;;;;;;;;;;;;;;2143345;59;1276;-66
2021/06/20 05:19:22;;;;;;;;;;;;;;;;;;2144073;66;1209;-67
2021/06/20 05:21:48;;;;;;;;;;;;;;;;;;2145036;53;1929;-68
2021/06/20 05:24:13;;;;;;;;;;;;;;;;;;2138571;59;1316;-69
2021/06/20 05:26:39;;;;;;;;;;;;;;;;;;2137784;67;1411;-69
2021/06/20 05:29:04;;;;;;;;;;;;;;;;;;2138866;67;1204;-67
2021/06/20 05:31:29;;;;;;;;;;;;;;;;;;2137434;67;1339;-69
2021/06/20 05:33:54;;;;;;;;;;;;;;;;;;2136851;67;1237;-69
2021/06/20 05:36:19;;;;;;;;;;;;;;;;;;2138224;67;1347;-70
2021/06/20 05:38:45;;;;;;;;;;;;;;;;;;2136668;59;1171;-70
2021/06/20 05:41:10;;;;;;;;;;;;;;;;;;2136164;67;1944;-68
2021/06/20 05:43:36;;;;;;;;;;;;;;;;;;2135233;67;1089;-70
2021/06/20 05:46:01;;;;;;;;;;;;;;;;;;2136777;59;1176;-70
2021/06/20 05:48:26;;;;;;;;;;;;;;;;;;2136356;59;1539;-71
2021/06/20 05:50:51;;;;;;;;;;;;;;;;;;2136808;67;1528;-70
2021/06/20 05:53:16;;;;;;;;;;;;;;;;;;2134942;67;1274;-67
2021/06/20 05:55:42;;;;;;;;;;;;;;;;;;2135798;59;2391;-70
2021/06/20 05:58:07;;;;;;;;;;;;;;;;;;2135559;67;2020;-69
2021/06/20 06:00:32;;;;;;;;;;;;;;;;;;2133840;59;1981;-69
2021/06/20 06:02:58;;;;;;;;;;;;;;;;;;2136160;67;2003;-69
2021/06/20 06:05:23;;;;;;;;;;;;;;;;;;2131955;67;1394;-68
2021/06/20 06:07:48;;;;;;;;;;;;;;;;;;2136668;67;1245;-71
2021/06/20 06:10:14;;;;;;;;;;;;;;;;;;2135976;67;1196;-70
2021/06/20 06:12:39;;;;;;;;;;;;;;;;;;2135627;67;1155;-68
2021/06/20 06:15:04;;;;;;;;;;;;;;;;;;2135896;59;2134;-70
2021/06/20 06:17:29;;;;;;;;;;;;;;;;;;2136870;67;1440;-67
2021/06/20 06:19:55;;;;;;;;;;;;;;;;;;2136637;67;1248;-70
2021/06/20 06:22:21;;;;;;;;;;;;;;;;;;2135343;59;1927;-68
2021/06/20 06:24:46;;;;;;;;;;;;;;;;;;2135698;59;1304;-69
2021/06/20 06:27:12;;;;;;;;;;;;;;;;;;2134821;59;1899;-69
2021/06/20 06:29:38;;;;;;;;;;;;;;;;;;2135628;59;1742;-70
2021/06/20 06:32:03;;;;;;;;;;;;;;;;;;2134721;59;1967;-70
2021/06/20 06:34:29;;;;;;;;;;;;;;;;;;2136116;67;1160;-70
2021/06/20 06:36:54;;;;;;;;;;;;;;;;;;2135727;67;1371;-69
2021/06/20 06:39:20;;;;;;;;;;;;;;;;;;2135776;59;2048;-71
2021/06/20 06:41:45;;;;;;;;;;;;;;;;;;2135928;67;1972;-71
2021/06/20 06:44:10;;;;;;;;;;;;;;;;;;2135138;67;1169;-69
2021/06/20 06:46:36;;;;;;;;;;;;;;;;;;2134088;67;1236;-69
2021/06/20 06:49:01;;;;;;;;;;;;;;;;;;2137909;67;1166;-70
2021/06/20 06:51:26;;;;;;;;;;;;;;;;;;2137696;67;1428;-70
2021/06/20 06:53:52;;;;;;;;;;;;;;;;;;2137866;67;1172;-71
2021/06/20 06:56:17;;;;;;;;;;;;;;;;;;2136629;59;1187;-69
2021/06/20 06:58:42;;;;;;;;;;;;;;;;;;2137979;67;1239;-72
2021/06/20 07:01:07;;;;;;;;;;;;;;;;;;2135949;60;1898;-70
2021/06/20 07:03:32;;;;;;;;;;;;;;;;;;2138557;67;1133;-70
2021/06/20 07:05:58;;;;;;;;;;;;;;;;;;2135676;67;1130;-70
2021/06/20 07:08:23;;;;;;;;;;;;;;;;;;2137873;59;1278;-69
2021/06/20 07:10:48;;;;;;;;;;;;;;;;;;2136187;67;1239;-70
2021/06/20 07:13:13;;;;;;;;;;;;;;;;;;2137517;67;2062;-70
2021/06/20 07:15:38;;;;;;;;;;;;;;;;;;2137353;59;1360;-71
2021/06/20 07:18:04;;;;;;;;;;;;;;;;;;2137622;67;1234;-70
2021/06/20 07:20:29;;;;;;;;;;;;;;;;;;2137327;59;1959;-70
2021/06/20 07:22:54;;;;;;;;;;;;;;;;;;2136450;59;1922;-71
2021/06/20 07:25:21;;;;;;;;;;;;;;;;;;2138151;59;1252;-68
2021/06/20 07:27:47;;;;;;;;;;;;;;;;;;2137546;67;1195;-68
2021/06/20 07:30:16;;;;;;;;;;;;;;;;;;2136150;59;1752;-71
2021/06/20 07:32:41;;;;;;;;;;;;;;;;;;2136812;59;2082;-71
2021/06/20 07:35:07;;;;;;;;;;;;;;;;;;2136952;67;1870;-70
2021/06/20 07:37:33;;;;;;;;;;;;;;;;;;2137952;67;1440;-68
2021/06/20 07:39:58;;;;;;;;;;;;;;;;;;2133917;67;1540;-70
2021/06/20 07:42:23;;;;;;;;;;;;;;;;;;2137734;67;1929;-70
2021/06/20 07:44:49;;;;;;;;;;;;;;;;;;2136611;67;1592;-70
2021/06/20 07:47:14;;;;;;;;;;;;;;;;;;2133863;59;1306;-71
2021/06/20 07:49:39;;;;;;;;;;;;;;;;;;2135859;59;2020;-70
2021/06/20 07:52:04;;;;;;;;;;;;;;;;;;2136636;67;1923;-69
2021/06/20 07:54:30;;;;;;;;;;;;;;;;;;2137020;67;1223;-69
2021/06/20 07:56:55;;;;;;;;;;;;;;;;;;2135415;59;1862;-70
2021/06/20 07:59:21;;;;;;;;;;;;;;;;;;2136658;67;2156;-70
2021/06/20 08:01:46;;;;;;;;;;;;;;;;;;2135724;67;1923;-71
2021/06/20 08:04:11;;;;;;;;;;;;;;;;;;2130827;59;1951;-69
2021/06/20 08:06:37;;;;;;;;;;;;;;;;;;2126234;59;2554;-68
2021/06/20 08:09:02;;;;;;;;;;;;;;;;;;2132857;59;2500;-69
2021/06/20 08:11:28;;;;;;;;;;;;;;;;;;2135104;61;1831;-67
2021/06/20 08:13:54;;;;;;;;;;;;;;;;;;2132297;59;1900;-69
2021/06/20 08:16:19;;;;;;;;;;;;;;;;;;2135278;67;1839;-70
2021/06/20 08:18:44;;;;;;;;;;;;;;;;;;2136320;67;1271;-69
2021/06/20 08:21:10;;;;;;;;;;;;;;;;;;2136575;59;1994;-70
2021/06/20 08:23:35;;;;;;;;;;;;;;;;;;2136203;67;1345;-69
2021/06/20 08:26:00;;;;;;;;;;;;;;;;;;2135099;59;1266;-69
2021/06/20 08:28:25;;;;;;;;;;;;;;;;;;2135240;59;1839;-68
2021/06/20 08:30:51;;;;;;;;;;;;;;;;;;2134150;67;2022;-68
2021/06/20 08:33:16;;;;;;;;;;;;;;;;;;2136070;59;2034;-68
2021/06/20 08:35:41;;;;;;;;;;;;;;;;;;2128535;59;2026;-68
2021/06/20 08:38:06;;;;;;;;;;;;;;;;;;2126612;59;2007;-68
2021/06/20 08:40:32;;;;;;;;;;;;;;;;;;2134048;59;2320;-70
2021/06/20 08:42:58;;;;;;;;;;;;;;;;;;2136206;67;1928;-69
2021/06/20 08:45:23;;;;;;;;;;;;;;;;;;2135959;67;1192;-69
2021/06/20 08:47:48;;;;;;;;;;;;;;;;;;2136369;67;1524;-68
2021/06/20 08:50:14;;;;;;;;;;;;;;;;;;2135278;59;2784;-68
2021/06/20 08:52:39;;;;;;;;;;;;;;;;;;2136544;67;1373;-70
2021/06/20 08:55:06;;;;;;;;;;;;;;;;;;2137554;67;1341;-69
2021/06/20 08:57:33;;;;;;;;;;;;;;;;;;2134774;67;1264;-69
2021/06/20 08:59:58;;;;;;;;;;;;;;;;;;2136256;67;1197;-68
2021/06/20 09:02:27;;;;;;;;;;;;;;;;;;2135659;67;1936;-69
2021/06/20 09:05:00;;;;;;;;;;;;;;;;;;2137319;67;1167;-70
2021/06/20 09:07:33;;;;;;;;;;;;;;;;;;2136810;59;2066;-69
2021/06/20 09:10:08;;;;;;;;;;;;;;;;;;2135885;67;1239;-68
2021/06/20 09:12:40;;;;;;;;;;;;;;;;;;2136728;67;1251;-69
2021/06/20 09:15:05;;;;;;;;;;;;;;;;;;2135729;59;1192;-68
2021/06/20 09:17:31;;;;;;;;;;;;;;;;;;2134209;67;1675;-68
2021/06/20 09:19:59;;;;;;;;;;;;;;;;;;2137561;67;1134;-69
2021/06/20 09:22:25;;;;;;;;;;;;;;;;;;2134805;59;1981;-70
2021/06/20 09:25:02;;;;;;;;;;;;;;;;;;2135132;59;1203;-67
2021/06/20 09:27:28;;;;;;;;;;;;;;;;;;2134456;67;1598;-69
2021/06/20 09:29:54;;;;;;;;;;;;;;;;;;2135415;67;1224;-69
2021/06/20 09:32:19;;;;;;;;;;;;;;;;;;2135661;67;1401;-69
2021/06/20 09:34:46;;;;;;;;;;;;;;;;;;2133022;67;1331;-68
2021/06/20 09:37:12;;;;;;;;;;;;;;;;;;2135061;67;1184;-70
2021/06/20 09:39:37;;;;;;;;;;;;;;;;;;2134963;67;1319;-69
2021/06/20 09:42:04;;;;;;;;;;;;;;;;;;2136168;67;1935;-69
2021/06/20 09:44:40;;;;;;;;;;;;;;;;;;2135712;67;1233;-68
2021/06/20 09:47:15;;;;;;;;;;;;;;;;;;2134719;59;1988;-68
2021/06/20 09:49:41;;;;;;;;;;;;;;;;;;2135571;67;2828;-70
2021/06/20 09:52:08;;;;;;;;;;;;;;;;;;2136314;62;2594;-68
2021/06/20 09:54:34;;;;;;;;;;;;;;;;;;2135431;59;1827;-69
2021/06/20 09:57:00;;;;;;;;;;;;;;;;;;2133770;59;1681;-68
2021/06/20 09:59:26;;;;;;;;;;;;;;;;;;2135982;67;1376;-68
2021/06/20 10:01:51;;;;;;;;;;;;;;;;;;2135679;60;1933;-69
2021/06/20 10:04:17;;;;;;;;;;;;;;;;;;2135828;59;1850;-70
2021/06/20 10:06:42;;;;;;;;;;;;;;;;;;2135005;67;1492;-69
2021/06/20 10:09:07;;;;;;;;;;;;;;;;;;2133461;67;1423;-69
2021/06/20 10:11:32;;;;;;;;;;;;;;;;;;2135128;67;1386;-70
2021/06/20 10:13:58;;;;;;;;;;;;;;;;;;2134670;67;1230;-70
2021/06/20 10:16:29;;;;;;;;;;;;;;;;;;2136785;59;1454;-71
2021/06/20 10:19:14;;;;;;;;;;;;;;;;;;2135910;67;1070;-71
2021/06/20 10:21:44;;;;;;;;;;;;;;;;;;2134393;59;1931;-70
2021/06/20 10:24:12;;;;;;;;;;;;;;;;;;2135641;59;1779;-70
2021/06/20 10:26:38;;;;;;;;;;;;;;;;;;2138133;67;1162;-69
2021/06/20 10:29:14;;;;;;;;;;;;;;;;;;2136743;59;1303;-70
2021/06/20 10:31:40;;;;;;;;;;;;;;;;;;2137612;67;1279;-69
2021/06/20 10:34:15;;;;;;;;;;;;;;;;;;2136546;59;1177;-68
2021/06/20 10:36:45;;;;;;;;;;;;;;;;;;2136943;67;1649;-69
2021/06/20 10:39:11;;;;;;;;;;;;;;;;;;2134378;59;2036;-69
2021/06/20 10:41:36;;;;;;;;;;;;;;;;;;2134900;67;1925;-69
2021/06/20 10:44:02;;;;;;;;;;;;;;;;;;2137051;67;1224;-73
2021/06/20 10:46:27;;;;;;;;;;;;;;;;;;2136904;67;1413;-70
2021/06/20 10:48:53;;;;;;;;;;;;;;;;;;2135690;67;1405;-69
2021/06/20 10:51:19;;;;;;;;;;;;;;;;;;2134055;59;2150;-71
2021/06/20 10:53:44;;;;;;;;;;;;;;;;;;2133807;67;2290;-70
2021/06/20 10:56:19;;;;;;;;;;;;;;;;;;2134420;59;1907;-70
2021/06/20 10:58:47;;;;;;;;;;;;;;;;;;2135465;67;1419;-71
2021/06/20 11:01:13;;;;;;;;;;;;;;;;;;2135427;67;1375;-70
2021/06/20 11:03:40;;;;;;;;;;;;;;;;;;2135308;67;1994;-71
2021/06/20 11:06:08;;;;;;;;;;;;;;;;;;2134749;59;1324;-72
2021/06/20 11:08:35;;;;;;;;;;;;;;;;;;2136192;59;1606;-69
2021/06/20 11:11:07;;;;;;;;;;;;;;;;;;2134204;59;1725;-71
2021/06/20 11:13:33;;;;;;;;;;;;;;;;;;2135702;67;1425;-71
2021/06/20 11:16:05;;;;;;;;;;;;;;;;;;2134905;59;1910;-71
2021/06/20 11:18:30;;;;;;;;;;;;;;;;;;2134672;67;1309;-70
2021/06/20 11:20:56;;;;;;;;;;;;;;;;;;2135967;59;2147;-71
2021/06/20 11:23:21;;;;;;;;;;;;;;;;;;2136043;59;2000;-71
2021/06/20 11:25:52;;;;;;;;;;;;;;;;;;2136398;59;1441;-71
2021/06/20 11:28:17;;;;;;;;;;;;;;;;;;2135709;67;1160;-71
2021/06/20 11:30:43;;;;;;;;;;;;;;;;;;2135298;59;1308;-71
2021/06/20 11:33:08;;;;;;;;;;;;;;;;;;2136126;67;1121;-71
2021/06/20 11:35:34;;;;;;;;;;;;;;;;;;2136237;67;1300;-71
2021/06/20 11:37:59;;;;;;;;;;;;;;;;;;2136189;59;1815;-71
2021/06/20 11:40:25;;;;;;;;;;;;;;;;;;2135669;67;1396;-70
2021/06/20 11:42:52;;;;;;;;;;;;;;;;;;2135335;67;1916;-70
2021/06/20 11:45:19;;;;;;;;;;;;;;;;;;2135292;67;1279;-71
2021/06/20 11:47:46;;;;;;;;;;;;;;;;;;2137483;59;1446;-70
2021/06/20 11:50:19;;;;;;;;;;;;;;;;;;2135994;67;1242;-70
2021/06/20 11:52:48;;;;;;;;;;;;;;;;;;2136037;62;2785;-70
2021/06/20 11:55:18;;;;;;;;;;;;;;;;;;2136105;59;1369;-70
2021/06/20 11:57:44;;;;;;;;;;;;;;;;;;2135356;59;1836;-70
2021/06/20 12:00:11;;;;;;;;;;;;;;;;;;2135919;67;1308;-69
2021/06/20 12:02:37;;;;;;;;;;;;;;;;;;2135485;59;1925;-69
2021/06/20 12:05:02;;;;;;;;;;;;;;;;;;2136947;67;1331;-69
2021/06/20 12:07:28;;;;;;;;;;;;;;;;;;2134894;59;1935;-69
2021/06/20 12:09:53;;;;;;;;;;;;;;;;;;2135402;67;1897;-69
2021/06/20 12:12:19;;;;;;;;;;;;;;;;;;2135589;67;1413;-70
2021/06/20 12:14:44;;;;;;;;;;;;;;;;;;2135988;67;1183;-70
2021/06/20 12:17:14;;;;;;;;;;;;;;;;;;2135882;59;1602;-69
2021/06/20 12:19:39;;;;;;;;;;;;;;;;;;2134943;67;1305;-70
2021/06/20 12:22:06;;;;;;;;;;;;;;;;;;2135907;59;1969;-69
2021/06/20 12:24:39;;;;;;;;;;;;;;;;;;2135445;59;1278;-70
2021/06/20 12:27:04;;;;;;;;;;;;;;;;;;2136878;67;2029;-70
2021/06/20 12:29:31;;;;;;;;;;;;;;;;;;2136960;59;1267;-70
2021/06/20 12:32:01;;;;;;;;;;;;;;;;;;2132507;67;1339;-70
2021/06/20 12:34:27;;;;;;;;;;;;;;;;;;2135775;67;1140;-70
2021/06/20 12:36:59;;;;;;;;;;;;;;;;;;2134340;67;1203;-70
2021/06/20 12:39:24;;;;;;;;;;;;;;;;;;2135128;67;1196;-70
2021/06/20 12:41:56;;;;;;;;;;;;;;;;;;2135716;67;1932;-70
2021/06/20 12:44:21;;;;;;;;;;;;;;;;;;2136758;67;2345;-70
2021/06/20 12:46:46;;;;;;;;;;;;;;;;;;2132458;67;1246;-71
2021/06/20 12:49:13;;;;;;;;;;;;;;;;;;2135907;67;1876;-70
2021/06/20 12:51:39;;;;;;;;;;;;;;;;;;2135691;67;2642;-71
2021/06/20 12:54:06;;;;;;;;;;;;;;;;;;2133679;59;3457;-70
2021/06/20 12:56:32;;;;;;;;;;;;;;;;;;2135428;67;2293;-71
2021/06/20 12:59:07;;;;;;;;;;;;;;;;;;2137235;59;2736;-71
2021/06/20 13:01:49;;;;;;;;;;;;;;;;;;2135424;59;2462;-70
2021/06/20 13:04:15;;;;;;;;;;;;;;;;;;2135130;59;2199;-71
2021/06/20 13:06:44;;;;;;;;;;;;;;;;;;2136669;59;1433;-70
2021/06/20 13:09:09;;;;;;;;;;;;;;;;;;2136548;67;1248;-70
2021/06/20 13:11:35;;;;;;;;;;;;;;;;;;2136557;67;1657;-70
2021/06/20 13:14:10;;;;;;;;;;;;;;;;;;2136463;67;1330;-71
2021/06/20 13:16:36;;;;;;;;;;;;;;;;;;2136928;59;1230;-70
2021/06/20 13:19:01;;;;;;;;;;;;;;;;;;2136537;67;1464;-71
2021/06/20 13:21:26;;;;;;;;;;;;;;;;;;2131571;59;1987;-70
2021/06/20 13:23:51;;;;;;;;;;;;;;;;;;2137053;67;1366;-71
2021/06/20 13:26:16;;;;;;;;;;;;;;;;;;2131718;67;1214;-71
2021/06/20 13:28:41;;;;;;;;;;;;;;;;;;2136285;67;1312;-70
2021/06/20 13:31:07;;;;;;;;;;;;;;;;;;2136908;67;1278;-70
2021/06/20 13:33:32;;;;;;;;;;;;;;;;;;2135148;59;1195;-70
2021/06/20 13:35:57;;;;;;;;;;;;;;;;;;2135938;67;1204;-70
2021/06/20 13:38:22;;;;;;;;;;;;;;;;;;2136453;59;2204;-70
2021/06/20 13:40:47;;;;;;;;;;;;;;;;;;2135242;67;2255;-71
2021/06/20 13:43:12;;;;;;;;;;;;;;;;;;2137392;67;1925;-70
2021/06/20 13:45:38;;;;;;;;;;;;;;;;;;2137511;67;1270;-71
2021/06/20 13:48:05;;;;;;;;;;;;;;;;;;2136204;59;2093;-70
2021/06/20 13:50:30;;;;;;;;;;;;;;;;;;2135599;59;1848;-72
2021/06/20 13:52:57;;;;;;;;;;;;;;;;;;2133228;67;2379;-70
2021/06/20 13:55:23;;;;;;;;;;;;;;;;;;2136760;67;1442;-71
2021/06/20 13:57:48;;;;;;;;;;;;;;;;;;2134980;59;1164;-71
2021/06/20 14:00:17;;;;;;;;;;;;;;;;;;2136495;59;1877;-71
2021/06/20 14:02:43;;;;;;;;;;;;;;;;;;2135826;59;1997;-71
2021/06/20 14:05:08;;;;;;;;;;;;;;;;;;2137154;59;1488;-70
2021/06/20 14:07:37;;;;;;;;;;;;;;;;;;2133437;59;1506;-71
2021/06/20 14:10:11;;;;;;;;;;;;;;;;;;2136496;67;1177;-71
2021/06/20 14:12:36;;;;;;;;;;;;;;;;;;2135916;67;1200;-71
2021/06/20 14:15:01;;;;;;;;;;;;;;;;;;2137118;59;1254;-70
2021/06/20 14:17:27;;;;;;;;;;;;;;;;;;2136871;67;1127;-70
2021/06/20 14:19:52;;;;;;;;;;;;;;;;;;2136561;67;1189;-71
2021/06/20 14:22:17;;;;;;;;;;;;;;;;;;2134072;59;1925;-71
2021/06/20 14:24:42;;;;;;;;;;;;;;;;;;2136895;59;1486;-70
2021/06/20 14:27:07;;;;;;;;;;;;;;;;;;2136254;67;1328;-69
2021/06/20 14:29:33;;;;;;;;;;;;;;;;;;2136683;59;1414;-71
2021/06/20 14:31:58;;;;;;;;;;;;;;;;;;2135757;67;1177;-70
2021/06/20 14:34:23;;;;;;;;;;;;;;;;;;2137349;59;1913;-70
2021/06/20 14:36:48;;;;;;;;;;;;;;;;;;2135051;59;1818;-70
2021/06/20 14:39:13;;;;;;;;;;;;;;;;;;2136553;67;1318;-70
2021/06/20 14:41:39;;;;;;;;;;;;;;;;;;2135010;67;1918;-70
2021/06/20 14:44:04;;;;;;;;;;;;;;;;;;2135851;67;1200;-70
2021/06/20 14:46:29;;;;;;;;;;;;;;;;;;2134918;67;1159;-70
2021/06/20 14:48:55;;;;;;;;;;;;;;;;;;2136261;61;1195;-69
2021/06/20 14:51:20;;;;;;;;;;;;;;;;;;2136132;67;1275;-70
2021/06/20 14:53:45;;;;;;;;;;;;;;;;;;2134709;67;1057;-70
2021/06/20 14:56:10;;;;;;;;;;;;;;;;;;2135341;67;1225;-70
2021/06/20 14:58:35;;;;;;;;;;;;;;;;;;2134648;59;1701;-70
2021/06/20 15:01:01;;;;;;;;;;;;;;;;;;2134429;67;1949;-70
2021/06/20 15:03:27;;;;;;;;;;;;;;;;;;2136074;67;1985;-70
2021/06/20 15:05:52;;;;;;;;;;;;;;;;;;2134958;59;1944;-69
2021/06/20 15:08:17;;;;;;;;;;;;;;;;;;2136759;59;1393;-69
2021/06/20 15:10:42;;;;;;;;;;;;;;;;;;2136790;67;1412;-70
2021/06/20 15:13:08;;;;;;;;;;;;;;;;;;2137216;67;1181;-69
2021/06/20 15:15:33;;;;;;;;;;;;;;;;;;2136792;59;1372;-69
2021/06/20 15:17:59;;;;;;;;;;;;;;;;;;2135893;67;1117;-70
2021/06/20 15:20:24;;;;;;;;;;;;;;;;;;2136877;59;1173;-70
2021/06/20 15:22:49;;;;;;;;;;;;;;;;;;2135781;67;1937;-69
2021/06/20 15:25:15;;;;;;;;;;;;;;;;;;2138093;59;1232;-70
2021/06/20 15:27:41;;;;;;;;;;;;;;;;;;2137376;67;1235;-70
2021/06/20 15:30:11;;;;;;;;;;;;;;;;;;2135714;67;1387;-69
2021/06/20 15:32:44;;;;;;;;;;;;;;;;;;2135697;67;1480;-70
2021/06/20 15:35:10;;;;;;;;;;;;;;;;;;2137851;67;988;-70
2021/06/20 15:37:39;;;;;;;;;;;;;;;;;;2136462;67;1249;-70
2021/06/20 15:40:06;;;;;;;;;;;;;;;;;;2135565;67;1147;-69
2021/06/20 15:42:31;;;;;;;;;;;;;;;;;;2136759;67;1973;-70
2021/06/20 15:44:56;;;;;;;;;;;;;;;;;;2135197;67;1122;-70
2021/06/20 15:47:22;;;;;;;;;;;;;;;;;;2138118;59;1997;-69
2021/06/20 15:49:47;;;;;;;;;;;;;;;;;;2135636;67;2398;-69
2021/06/20 15:52:13;;;;;;;;;;;;;;;;;;2135787;67;1201;-70
2021/06/20 15:54:38;;;;;;;;;;;;;;;;;;2134938;59;1882;-69
2021/06/20 15:57:03;;;;;;;;;;;;;;;;;;2136297;59;2179;-69
2021/06/20 15:59:28;;;;;;;;;;;;;;;;;;2135308;67;1271;-70
2021/06/20 16:01:53;;;;;;;;;;;;;;;;;;2136450;67;1924;-70
2021/06/20 16:04:19;;;;;;;;;;;;;;;;;;2135752;59;1675;-70
2021/06/20 16:06:44;;;;;;;;;;;;;;;;;;2137544;67;1238;-70
2021/06/20 16:09:09;;;;;;;;;;;;;;;;;;2135236;67;1340;-70
2021/06/20 16:11:40;;;;;;;;;;;;;;;;;;2135895;67;1323;-69
2021/06/20 16:14:06;;;;;;;;;;;;;;;;;;2134800;67;1161;-70
2021/06/20 16:16:31;;;;;;;;;;;;;;;;;;2136659;59;1197;-69
2021/06/20 16:18:57;;;;;;;;;;;;;;;;;;2133868;67;1159;-69
2021/06/20 16:21:22;;;;;;;;;;;;;;;;;;2135833;59;1194;-69
2021/06/20 16:23:47;;;;;;;;;;;;;;;;;;2135470;59;1938;-69
2021/06/20 16:26:14;;;;;;;;;;;;;;;;;;2135627;67;1059;-69
2021/06/20 16:28:41;;;;;;;;;;;;;;;;;;2135948;59;1371;-69
2021/06/20 16:31:07;;;;;;;;;;;;;;;;;;2132856;59;1950;-70
2021/06/20 16:33:32;;;;;;;;;;;;;;;;;;2135719;59;1236;-70
2021/06/20 16:35:57;;;;;;;;;;;;;;;;;;2136565;67;1224;-70
2021/06/20 16:38:22;;;;;;;;;;;;;;;;;;2138555;67;1199;-71
2021/06/20 16:40:47;;;;;;;;;;;;;;;;;;2138652;67;1218;-71
2021/06/20 16:43:13;;;;;;;;;;;;;;;;;;2134637;67;3040;-69
2021/06/20 16:45:38;;;;;;;;;;;;;;;;;;2137636;67;1684;-69
2021/06/20 16:48:03;;;;;;;;;;;;;;;;;;2133269;67;1482;-69
2021/06/20 16:50:29;;;;;;;;;;;;;;;;;;2135178;67;1367;-69
2021/06/20 16:52:54;;;;;;;;;;;;;;;;;;2135065;67;1171;-69
2021/06/20 16:55:19;;;;;;;;;;;;;;;;;;2134850;59;1862;-69